createdAt,value
2023-04-21T00:00:30.794Z,96189.38
2023-04-21T00:02:59.173Z,96199.06
2023-04-21T00:05:29.131Z,96206.13
2023-04-21T00:07:57.464Z,96199.66
2023-04-21T00:10:25.820Z,96148.16
2023-04-21T00:12:54.011Z,96167.66
2023-04-21T00:15:22.196Z,96244.00
2023-04-21T00:17:50.642Z,96200.25
2023-04-21T00:20:19.192Z,96173.22
2023-04-21T00:22:50.472Z,96209.84
2023-04-21T00:25:24.885Z,96179.34
2023-04-21T00:27:53.974Z,96214.16
2023-04-21T00:30:22.309Z,96134.00
2023-04-21T00:32:50.540Z,96201.84
2023-04-21T00:35:18.816Z,96173.00
2023-04-21T00:37:50.172Z,96158.69
2023-04-21T00:40:18.482Z,96177.69
2023-04-21T00:42:46.671Z,96192.16
2023-04-21T00:45:15.915Z,96198.13
2023-04-21T00:47:44.430Z,96195.13
2023-04-21T00:50:13.862Z,96257.38
2023-04-21T00:52:43.833Z,96206.84
2023-04-21T00:55:14.013Z,96163.59
2023-04-21T00:57:43.848Z,96171.28
2023-04-21T01:00:13.836Z,96230.47
2023-04-21T01:02:42.626Z,96264.75
2023-04-21T01:05:12.173Z,96194.59
2023-04-21T01:07:40.552Z,96205.13
2023-04-21T01:10:10.183Z,96214.50
2023-04-21T01:12:45.930Z,96222.09
2023-04-21T01:15:15.820Z,96163.91
2023-04-21T01:17:45.186Z,96176.34
2023-04-21T01:20:16.227Z,96203.25
2023-04-21T01:22:46.917Z,96172.94
2023-04-21T01:25:17.593Z,96205.47
2023-04-21T01:27:45.982Z,96156.25
2023-04-21T01:30:14.448Z,96203.00
2023-04-21T01:32:42.716Z,96213.44
2023-04-21T01:35:11.649Z,96167.28
2023-04-21T01:37:40.852Z,96211.78
2023-04-21T01:40:11.797Z,96228.16
2023-04-21T01:42:42.677Z,96193.97
2023-04-21T01:45:12.227Z,96152.38
2023-04-21T01:47:40.818Z,96180.50
2023-04-21T01:50:10.719Z,96160.13
2023-04-21T01:52:38.905Z,96166.66
2023-04-21T01:55:08.278Z,96197.19
2023-04-21T01:57:37.815Z,96188.63
2023-04-21T02:00:09.246Z,96182.22
2023-04-21T02:02:43.664Z,96194.69
2023-04-21T02:05:14.509Z,96165.06
2023-04-21T02:07:43.050Z,96185.28
2023-04-21T02:10:13.778Z,96202.72
2023-04-21T02:12:45.838Z,96189.06
2023-04-21T02:15:14.158Z,96176.06
2023-04-21T02:17:42.934Z,96206.94
2023-04-21T02:20:13.353Z,96151.44
2023-04-21T02:22:41.673Z,96198.34
2023-04-21T02:25:10.739Z,96189.44
2023-04-21T02:27:40.352Z,96135.16
2023-04-21T02:30:11.311Z,96116.19
2023-04-21T02:32:39.999Z,96187.50
2023-04-21T02:35:09.081Z,96113.28
2023-04-21T02:37:37.315Z,96138.06
2023-04-21T02:40:07.280Z,96140.06
2023-04-21T02:42:35.739Z,96123.75
2023-04-21T02:45:04.213Z,96143.38
2023-04-21T02:47:33.790Z,96109.69
2023-04-21T02:50:02.016Z,96108.91
2023-04-21T02:52:30.225Z,96079.03
2023-04-21T02:54:59.136Z,96153.69
2023-04-21T02:57:27.290Z,96110.47
2023-04-21T02:59:55.526Z,96121.00
2023-04-21T03:02:24.289Z,96154.16
2023-04-21T03:04:54.069Z,96172.59
2023-04-21T03:07:22.276Z,96126.13
2023-04-21T03:09:50.605Z,96109.88
2023-04-21T03:12:18.849Z,96086.25
2023-04-21T03:14:47.195Z,96072.72
2023-04-21T03:17:15.423Z,96104.31
2023-04-21T03:19:43.620Z,96106.50
2023-04-21T03:22:14.267Z,96068.78
2023-04-21T03:24:42.876Z,96109.25
2023-04-21T03:27:11.632Z,96089.03
2023-04-21T03:29:40.248Z,96098.72
2023-04-21T03:32:08.588Z,96121.06
2023-04-21T03:34:37.218Z,96110.91
2023-04-21T03:37:06.649Z,96128.75
2023-04-21T03:39:36.202Z,96124.19
2023-04-21T03:42:05.811Z,96132.03
2023-04-21T03:44:34.161Z,96128.53
2023-04-21T03:47:27.336Z,96091.19
2023-04-21T03:49:55.586Z,96124.94
2023-04-21T03:52:23.902Z,96126.41
2023-04-21T03:54:53.452Z,96141.25
2023-04-21T03:57:21.677Z,96119.66
2023-04-21T03:59:49.918Z,96174.34
2023-04-21T04:02:18.165Z,96157.03
2023-04-21T04:04:47.603Z,96177.38
2023-04-21T04:07:17.595Z,96148.00
2023-04-21T04:09:46.547Z,96150.53
2023-04-21T04:12:21.512Z,96099.25
2023-04-21T04:14:50.232Z,96254.81
2023-04-21T04:17:18.463Z,96091.63
2023-04-21T04:19:46.641Z,96088.59
2023-04-21T04:22:14.900Z,96163.41
2023-04-21T04:24:45.162Z,96196.09
2023-04-21T04:27:15.070Z,96167.47
2023-04-21T04:29:43.985Z,96144.84
2023-04-21T04:32:12.162Z,96124.25
2023-04-21T04:34:40.860Z,96149.69
2023-04-21T04:37:11.335Z,96166.63
2023-04-21T04:39:39.609Z,96158.97
2023-04-21T04:42:10.115Z,96164.28
2023-04-21T04:44:41.569Z,96187.53
2023-04-21T04:47:09.798Z,96194.84
2023-04-21T04:49:38.227Z,96190.50
2023-04-21T04:52:07.061Z,96193.78
2023-04-21T04:54:35.454Z,96236.25
2023-04-21T04:57:03.779Z,96037.06
2023-04-21T04:59:32.164Z,96176.28
2023-04-21T05:02:01.807Z,96185.69
2023-04-21T05:04:30.213Z,96228.97
2023-04-21T05:06:58.553Z,96166.34
2023-04-21T05:09:26.756Z,96218.47
2023-04-21T05:11:55.498Z,96212.38
2023-04-21T05:14:23.696Z,96181.91
2023-04-21T05:16:51.886Z,96199.63
2023-04-21T05:19:21.392Z,96137.59
2023-04-21T05:21:49.586Z,96155.59
2023-04-21T05:24:23.163Z,96246.09
2023-04-21T05:26:51.384Z,96140.28
2023-04-21T05:29:19.582Z,96200.16
2023-04-21T05:31:47.940Z,96212.81
2023-04-21T05:34:16.264Z,96179.09
2023-04-21T05:36:47.385Z,96251.94
2023-04-21T05:39:16.355Z,96177.50
2023-04-21T05:41:44.762Z,96206.78
2023-04-21T05:44:13.156Z,96224.13
2023-04-21T05:46:41.417Z,96229.81
2023-04-21T05:49:09.664Z,96018.41
2023-04-21T05:51:37.870Z,96214.88
2023-04-21T05:54:07.540Z,96181.03
2023-04-21T05:56:35.823Z,96203.81
2023-04-21T05:59:04.007Z,96177.53
2023-04-21T06:01:32.205Z,96184.50
2023-04-21T06:04:00.593Z,96123.28
2023-04-21T06:06:29.095Z,96160.47
2023-04-21T06:08:57.345Z,96151.41
2023-04-21T06:11:27.176Z,96144.47
2023-04-21T06:13:58.450Z,96200.19
2023-04-21T06:16:26.978Z,96198.53
2023-04-21T06:18:55.318Z,96191.72
2023-04-21T06:21:23.550Z,96122.47
2023-04-21T06:23:51.792Z,96173.94
2023-04-21T06:26:20.172Z,96162.84
2023-04-21T06:28:49.755Z,96204.13
2023-04-21T06:31:19.174Z,96187.41
2023-04-21T06:33:47.444Z,96184.53
2023-04-21T06:36:23.049Z,96177.84
2023-04-21T06:38:51.277Z,96178.53
2023-04-21T06:41:19.714Z,96190.53
2023-04-21T06:43:49.514Z,96166.59
2023-04-21T06:46:18.371Z,96179.56
2023-04-21T06:48:46.724Z,96144.47
2023-04-21T06:51:14.926Z,96174.50
2023-04-21T06:53:43.316Z,96176.34
2023-04-21T06:56:11.779Z,96157.63
2023-04-21T06:58:40.017Z,96102.72
2023-04-21T07:01:09.603Z,96173.44
2023-04-21T07:03:37.998Z,96144.56
2023-04-21T07:06:06.986Z,96130.09
2023-04-21T07:08:35.148Z,96140.75
2023-04-21T07:11:03.548Z,96124.84
2023-04-21T07:13:31.852Z,96173.09
2023-04-21T07:16:00.154Z,96158.94
2023-04-21T07:18:29.676Z,96140.25
2023-04-21T07:20:57.933Z,96157.97
2023-04-21T07:23:26.239Z,96091.47
2023-04-21T07:25:54.517Z,96091.22
2023-04-21T07:28:22.745Z,96098.69
2023-04-21T07:30:51.177Z,96141.41
2023-04-21T07:33:19.455Z,96143.38
2023-04-21T07:35:49.178Z,96091.63
2023-04-21T07:38:17.494Z,96133.84
2023-04-21T07:40:45.950Z,96102.44
2023-04-21T07:43:14.234Z,96122.59
2023-04-21T07:45:42.493Z,96136.22
2023-04-21T07:48:11.848Z,96104.75
2023-04-21T07:50:40.277Z,96118.28
2023-04-21T07:53:09.827Z,96122.66
2023-04-21T07:55:38.056Z,96151.66
2023-04-21T07:58:06.648Z,96086.47
2023-04-21T08:00:35.150Z,96082.19
2023-04-21T08:03:03.480Z,96119.06
2023-04-21T08:05:35.747Z,96056.41
2023-04-21T08:08:07.319Z,96142.31
2023-04-21T08:10:37.098Z,96131.94
2023-04-21T08:13:06.397Z,96138.81
2023-04-21T08:15:35.214Z,96053.75
2023-04-21T08:18:03.450Z,96068.34
2023-04-21T08:20:32.171Z,96137.94
2023-04-21T08:23:00.575Z,96166.34
2023-04-21T08:25:28.816Z,96114.31
2023-04-21T08:27:58.365Z,96116.31
2023-04-21T08:30:28.824Z,96116.34
2023-04-21T08:32:57.240Z,96131.97
2023-04-21T08:35:25.951Z,96100.16
2023-04-21T08:37:54.161Z,96151.31
2023-04-21T08:40:23.905Z,96123.75
2023-04-21T08:42:52.155Z,96138.13
2023-04-21T08:45:22.100Z,96118.50
2023-04-21T08:47:51.014Z,96105.19
2023-04-21T08:50:19.237Z,96095.41
2023-04-21T08:52:55.715Z,96151.53
2023-04-21T08:55:29.202Z,96120.47
2023-04-21T08:57:57.621Z,96117.72
2023-04-21T09:00:27.316Z,96147.59
2023-04-21T09:03:01.412Z,96109.59
2023-04-21T09:05:32.991Z,96096.69
2023-04-21T09:08:12.618Z,96102.97
2023-04-21T09:10:49.223Z,96127.75
2023-04-21T09:13:18.981Z,96091.34
2023-04-21T09:15:52.228Z,96128.16
2023-04-21T09:18:23.123Z,96085.81
2023-04-21T09:20:53.836Z,96090.94
2023-04-21T09:23:22.661Z,96123.88
2023-04-21T09:25:50.945Z,96135.28
2023-04-21T09:28:19.138Z,96152.16
2023-04-21T09:30:49.080Z,96105.28
2023-04-21T09:33:27.980Z,96112.88
2023-04-21T09:36:03.965Z,96106.94
2023-04-21T09:38:32.591Z,96137.56
2023-04-21T09:41:04.146Z,96124.03
2023-04-21T09:43:34.518Z,96164.00
2023-04-21T09:46:07.218Z,96085.78
2023-04-21T09:48:37.234Z,96140.75
2023-04-21T09:53:41.836Z,96143.69
2023-04-21T09:56:14.134Z,96136.78
2023-04-21T09:58:47.954Z,96127.59
2023-04-21T10:04:10.824Z,96114.06
2023-04-21T10:06:39.364Z,96116.75
2023-04-21T10:09:19.897Z,96077.38
2023-04-21T10:11:49.451Z,96102.19
2023-04-21T10:14:17.952Z,96098.09
2023-04-21T10:16:57.972Z,96148.28
2023-04-21T10:19:28.764Z,96101.63
2023-04-21T10:21:58.108Z,96113.69
2023-04-21T10:24:30.850Z,96100.00
2023-04-21T10:27:01.722Z,96112.91
2023-04-21T10:29:43.654Z,96051.31
2023-04-21T10:32:32.660Z,96074.34
2023-04-21T10:35:00.887Z,96088.59
2023-04-21T10:37:32.706Z,96119.00
2023-04-21T10:40:00.961Z,96125.91
2023-04-21T10:42:36.795Z,96097.78
2023-04-21T10:45:13.476Z,96109.81
2023-04-21T10:47:51.402Z,96104.75
2023-04-21T10:50:23.696Z,96091.72
2023-04-21T10:53:02.430Z,96055.53
2023-04-21T10:55:31.710Z,96049.41
2023-04-21T10:58:04.360Z,96090.81
2023-04-21T11:00:33.822Z,95976.31
2023-04-21T11:03:05.978Z,96095.97
2023-04-21T11:05:40.472Z,96064.78
2023-04-21T11:08:12.482Z,96050.06
2023-04-21T11:10:55.721Z,96039.00
2023-04-21T11:13:27.073Z,96034.31
2023-04-21T11:16:02.567Z,96085.94
2023-04-21T11:18:41.301Z,96060.03
2023-04-21T11:21:18.084Z,96114.13
2023-04-21T11:23:51.998Z,96021.28
2023-04-21T11:26:35.266Z,96050.03
2023-04-21T11:29:07.401Z,96119.41
2023-04-21T11:31:36.515Z,96064.00
2023-04-21T11:34:07.905Z,96053.91
2023-04-21T11:36:36.897Z,96103.66
2023-04-21T11:39:09.954Z,96049.44
2023-04-21T11:41:40.807Z,96059.88
2023-04-21T11:44:09.524Z,96076.63
2023-04-21T11:46:38.660Z,95996.97
2023-04-21T11:49:12.622Z,96061.78
2023-04-21T11:51:42.872Z,96031.53
2023-04-21T11:54:13.680Z,96005.72
2023-04-21T11:56:43.662Z,95989.34
2023-04-21T11:59:14.243Z,96067.13
2023-04-21T12:01:46.560Z,95972.78
2023-04-21T12:04:18.049Z,96018.28
2023-04-21T12:06:47.652Z,96093.66
2023-04-21T12:09:21.506Z,96051.94
2023-04-21T12:11:51.320Z,95983.41
2023-04-21T12:14:21.447Z,96008.47
2023-04-21T12:16:51.311Z,96013.88
2023-04-21T12:19:37.338Z,96012.63
2023-04-21T12:22:09.634Z,96051.31
2023-04-21T12:24:38.298Z,96028.56
2023-04-21T12:27:07.769Z,96008.81
2023-04-21T12:29:37.523Z,96004.69
2023-04-21T12:32:06.318Z,95973.19
2023-04-21T12:34:36.400Z,96003.22
2023-04-21T12:37:06.073Z,96019.75
2023-04-21T12:39:34.966Z,95981.13
2023-04-21T12:42:03.227Z,96017.31
2023-04-21T12:44:31.661Z,96013.69
2023-04-21T12:46:59.941Z,96053.00
2023-04-21T12:49:28.395Z,95996.44
2023-04-21T12:51:58.142Z,96002.19
2023-04-21T12:54:26.360Z,95982.06
2023-04-21T12:56:55.314Z,96032.69
2023-04-21T12:59:23.571Z,95977.53
2023-04-21T13:01:52.190Z,95951.72
2023-04-21T13:04:20.745Z,95990.88
2023-04-21T13:06:49.212Z,96027.25
2023-04-21T13:09:19.462Z,95976.97
2023-04-21T13:11:47.759Z,95933.94
2023-04-21T13:14:16.894Z,95987.56
2023-04-21T13:16:45.508Z,95961.72
2023-04-21T13:19:13.817Z,95945.13
2023-04-21T13:21:42.215Z,95950.78
2023-04-21T13:24:14.348Z,95910.22
2023-04-21T13:26:44.262Z,95973.41
2023-04-21T13:29:12.477Z,95955.25
2023-04-21T13:31:40.976Z,95940.28
2023-04-21T13:34:09.308Z,95896.66
2023-04-21T13:36:37.643Z,95973.19
2023-04-21T13:39:07.502Z,95980.47
2023-04-21T13:41:35.782Z,95920.50
2023-04-21T13:44:05.395Z,95941.31
2023-04-21T13:46:33.786Z,95929.69
2023-04-21T13:49:02.289Z,95923.25
2023-04-21T13:51:32.284Z,95919.00
2023-04-21T13:54:00.633Z,95970.50
2023-04-21T13:56:28.934Z,95951.31
2023-04-21T13:58:57.753Z,95940.06
2023-04-21T14:01:32.457Z,95912.28
2023-04-21T14:04:03.251Z,95895.13
2023-04-21T14:06:41.617Z,95921.13
2023-04-21T14:09:15.375Z,95921.38
2023-04-21T14:11:52.129Z,95919.66
2023-04-21T14:14:31.453Z,95891.81
2023-04-21T14:17:08.566Z,95864.56
2023-04-21T14:19:37.297Z,95946.25
2023-04-21T14:22:05.595Z,95923.38
2023-04-21T14:24:33.973Z,95910.56
2023-04-21T14:27:02.287Z,95914.59
2023-04-21T14:29:30.595Z,95875.34
2023-04-21T14:31:59.511Z,95896.16
2023-04-21T14:34:29.157Z,95914.00
2023-04-21T14:36:59.049Z,95938.06
2023-04-21T14:39:27.314Z,95865.91
2023-04-21T14:41:56.012Z,95809.41
2023-04-21T14:44:24.253Z,95827.19
2023-04-21T14:47:05.723Z,95852.19
2023-04-21T14:49:39.953Z,95871.06
2023-04-21T14:52:08.280Z,95856.31
2023-04-21T14:54:36.581Z,95678.97
2023-04-21T14:57:18.735Z,95876.28
2023-04-21T14:59:49.818Z,95868.56
2023-04-21T15:02:18.540Z,95998.38
2023-04-21T15:04:48.532Z,95861.50
2023-04-21T15:07:22.872Z,95892.25
2023-04-21T15:09:52.457Z,95842.53
2023-04-21T15:12:21.061Z,95863.38
2023-04-21T15:14:49.401Z,95853.22
2023-04-21T15:17:17.733Z,95890.09
2023-04-21T15:19:47.305Z,95884.06
2023-04-21T15:22:15.643Z,95855.94
2023-04-21T15:24:43.901Z,95786.16
2023-04-21T15:27:12.276Z,95837.63
2023-04-21T15:29:40.524Z,95836.13
2023-04-21T15:32:08.834Z,95881.78
2023-04-21T15:34:37.167Z,95811.19
2023-04-21T15:37:06.809Z,95857.13
2023-04-21T15:39:35.197Z,95863.84
2023-04-21T15:42:04.417Z,95799.63
2023-04-21T15:44:33.950Z,95873.88
2023-04-21T15:47:02.463Z,95854.75
2023-04-21T15:49:31.153Z,95851.22
2023-04-21T15:51:59.475Z,95819.03
2023-04-21T15:54:29.081Z,95856.66
2023-04-21T15:56:57.611Z,95857.72
2023-04-21T15:59:26.279Z,95880.81
2023-04-21T16:01:56.762Z,95885.06
2023-04-21T16:04:25.419Z,95864.53
2023-04-21T16:06:53.868Z,95837.19
2023-04-21T16:09:22.782Z,95875.44
2023-04-21T16:11:52.461Z,95874.84
2023-04-21T16:14:20.857Z,95862.63
2023-04-21T16:16:49.174Z,95850.00
2023-04-21T16:19:17.422Z,95854.81
2023-04-21T16:21:45.723Z,95881.84
2023-04-21T16:24:14.040Z,95889.56
2023-04-21T16:26:42.455Z,95853.84
2023-04-21T16:29:12.043Z,95722.06
2023-04-21T16:31:40.381Z,95837.25
2023-04-21T16:34:09.377Z,95862.38
2023-04-21T16:36:38.083Z,95871.06
2023-04-21T16:39:06.756Z,95873.22
2023-04-21T16:41:34.997Z,95697.34
2023-04-21T16:44:03.352Z,95865.06
2023-04-21T16:46:33.022Z,95798.03
2023-04-21T16:49:01.488Z,95858.88
2023-04-21T16:51:29.979Z,95852.00
2023-04-21T16:53:58.230Z,95738.25
2023-04-21T16:56:26.530Z,95820.78
2023-04-21T16:58:54.846Z,95869.34
2023-04-21T17:01:23.092Z,95854.84
2023-04-21T17:03:52.815Z,95896.66
2023-04-21T17:06:21.851Z,95864.63
2023-04-21T17:08:50.123Z,95884.41
2023-04-21T17:11:18.359Z,95833.50
2023-04-21T17:13:46.606Z,95852.22
2023-04-21T17:16:14.928Z,95774.53
2023-04-21T17:18:43.155Z,95808.50
2023-04-21T17:21:14.744Z,95858.81
2023-04-21T17:23:43.736Z,95842.88
2023-04-21T17:26:13.256Z,95812.84
2023-04-21T17:28:41.986Z,95758.47
2023-04-21T17:31:15.546Z,95856.38
2023-04-21T17:33:44.437Z,95869.63
2023-04-21T17:36:14.133Z,95826.88
2023-04-21T17:38:43.177Z,95780.84
2023-04-21T17:41:11.660Z,95865.50
2023-04-21T17:43:40.014Z,95894.34
2023-04-21T17:46:08.401Z,95839.94
2023-04-21T17:48:36.777Z,95852.09
2023-04-21T17:51:05.448Z,95850.44
2023-04-21T17:53:35.088Z,95871.41
2023-04-21T17:56:03.498Z,95880.44
2023-04-21T17:58:31.788Z,95793.69
2023-04-21T18:01:00.352Z,95765.88
2023-04-21T18:03:28.965Z,95877.38
2023-04-21T18:05:58.469Z,95913.69
2023-04-21T18:08:26.873Z,95813.09
2023-04-21T18:11:01.637Z,95849.91
2023-04-21T18:13:29.890Z,95828.00
2023-04-21T18:15:58.992Z,95882.16
2023-04-21T18:18:27.386Z,95886.59
2023-04-21T18:20:55.771Z,95850.25
2023-04-21T18:23:24.066Z,95895.97
2023-04-21T18:25:52.458Z,95892.59
2023-04-21T18:28:22.086Z,95760.88
2023-04-21T18:30:51.261Z,95873.00
2023-04-21T18:33:19.687Z,95855.63
2023-04-21T18:35:48.326Z,95903.19
2023-04-21T18:38:16.583Z,95905.53
2023-04-21T18:40:44.924Z,95565.22
2023-04-21T18:43:13.333Z,95907.88
2023-04-21T18:45:42.980Z,95914.72
2023-04-21T18:48:11.253Z,95894.16
2023-04-21T18:50:41.041Z,95907.22
2023-04-21T18:53:09.810Z,95901.41
2023-04-21T18:55:38.428Z,95891.16
2023-04-21T18:58:07.239Z,95877.53
2023-04-21T19:00:38.808Z,95915.81
2023-04-21T19:03:09.602Z,95959.06
2023-04-21T19:05:40.459Z,95908.13
2023-04-21T19:08:10.783Z,95904.53
2023-04-21T19:10:39.518Z,95928.34
2023-04-21T19:13:07.773Z,95907.63
2023-04-21T19:15:36.712Z,95921.28
2023-04-21T19:18:05.567Z,95903.94
2023-04-21T19:20:35.777Z,95952.53
2023-04-21T19:23:04.111Z,95891.84
2023-04-21T19:25:33.267Z,95887.63
2023-04-21T19:28:02.250Z,95904.78
2023-04-21T19:30:30.702Z,95906.38
2023-04-21T19:32:59.023Z,95972.00
2023-04-21T19:35:27.909Z,95894.41
2023-04-21T19:37:57.604Z,95863.88
2023-04-21T19:40:26.984Z,95923.94
2023-04-21T19:42:55.693Z,95922.50
2023-04-21T19:45:24.030Z,95948.16
2023-04-21T19:47:52.685Z,95873.53
2023-04-21T19:50:21.302Z,95956.28
2023-04-21T19:52:54.803Z,95904.97
2023-04-21T19:55:24.434Z,95949.38
2023-04-21T19:57:53.051Z,95948.94
2023-04-21T20:00:21.632Z,95933.66
2023-04-21T20:02:50.084Z,95959.66
2023-04-21T20:05:19.719Z,95854.34
2023-04-21T20:07:48.802Z,95980.75
2023-04-21T20:10:17.783Z,95967.72
2023-04-21T20:12:47.383Z,95958.09
2023-04-21T20:15:17.017Z,95955.25
2023-04-21T20:17:47.550Z,95946.25
2023-04-21T20:20:16.331Z,95992.56
2023-04-21T20:22:44.672Z,95702.25
2023-04-21T20:25:13.497Z,95944.91
2023-04-21T20:27:42.162Z,95944.69
2023-04-21T20:30:12.412Z,95993.03
2023-04-21T20:32:40.672Z,95990.88
2023-04-21T20:35:11.756Z,95995.13
2023-04-21T20:37:40.401Z,95996.53
2023-04-21T20:40:11.629Z,95895.59
2023-04-21T20:42:40.441Z,95994.44
2023-04-21T20:45:11.022Z,95970.72
2023-04-21T20:47:39.420Z,95974.91
2023-04-21T20:50:09.075Z,95975.75
2023-04-21T20:52:37.714Z,95974.25
2023-04-21T20:55:07.602Z,95972.13
2023-04-21T20:57:36.256Z,96008.22
2023-04-21T21:00:07.073Z,95963.44
2023-04-21T21:02:36.980Z,95850.56
2023-04-21T21:05:06.167Z,95850.41
2023-04-21T21:07:34.622Z,95974.28
2023-04-21T21:10:03.525Z,95931.06
2023-04-21T21:12:31.753Z,96003.09
2023-04-21T21:14:59.944Z,95905.44
2023-04-21T21:17:28.235Z,95982.13
2023-04-21T21:19:58.704Z,95965.59
2023-04-21T21:22:27.007Z,95917.69
2023-04-21T21:24:55.215Z,95980.28
2023-04-21T21:27:24.390Z,96011.00
2023-04-21T21:29:52.547Z,95991.75
2023-04-21T21:32:20.955Z,96009.28
2023-04-21T21:34:49.665Z,95930.47
2023-04-21T21:37:19.271Z,95961.03
2023-04-21T21:39:47.431Z,95962.28
2023-04-21T21:42:15.644Z,95940.66
2023-04-21T21:44:43.949Z,95965.28
2023-04-21T21:47:12.189Z,95932.22
2023-04-21T21:49:40.708Z,95964.06
2023-04-21T21:52:09.078Z,95944.75
2023-04-21T21:54:39.015Z,95947.03
2023-04-21T21:57:07.308Z,95950.28
2023-04-21T21:59:35.808Z,95966.22
2023-04-21T22:02:04.497Z,95969.53
2023-04-21T22:04:33.114Z,95958.66
2023-04-21T22:07:13.369Z,95949.00
2023-04-21T22:09:46.496Z,95950.09
2023-04-21T22:12:14.735Z,95920.84
2023-04-21T22:14:42.977Z,95960.22
2023-04-21T22:17:11.888Z,95958.50
2023-04-21T22:19:41.723Z,95906.38
2023-04-21T22:22:10.595Z,95931.00
2023-04-21T22:24:38.937Z,95976.22
2023-04-21T22:27:08.596Z,95961.19
2023-04-21T22:29:37.930Z,95953.56
2023-04-21T22:32:06.808Z,95933.78
2023-04-21T22:34:35.024Z,95926.56
2023-04-21T22:37:03.258Z,95990.31
2023-04-21T22:39:31.543Z,96007.94
2023-04-21T22:41:59.803Z,95965.06
2023-04-21T22:44:29.443Z,95982.50
2023-04-21T22:46:57.698Z,95950.50
2023-04-21T22:49:26.149Z,95989.50
2023-04-21T22:51:54.437Z,95996.19
2023-04-21T22:54:22.688Z,95984.31
2023-04-21T22:56:50.950Z,96004.47
2023-04-21T22:59:19.195Z,95954.34
2023-04-21T23:01:53.397Z,95948.72
2023-04-21T23:04:21.832Z,95962.13
2023-04-21T23:06:50.081Z,96005.38
2023-04-21T23:09:18.260Z,96001.09
2023-04-21T23:11:46.460Z,96000.38
2023-04-21T23:14:14.738Z,95986.06
2023-04-21T23:16:43.295Z,96023.25
2023-04-21T23:19:12.906Z,95935.50
2023-04-21T23:21:41.211Z,96052.69
2023-04-21T23:24:09.480Z,95960.81
2023-04-21T23:26:37.680Z,95926.44
2023-04-21T23:29:06.056Z,95954.50
2023-04-21T23:31:34.427Z,95935.53
2023-04-21T23:34:02.710Z,95967.00
2023-04-21T23:36:32.903Z,95973.69
2023-04-21T23:39:01.057Z,95974.19
2023-04-21T23:41:29.297Z,95983.53
2023-04-21T23:43:58.379Z,95965.56
2023-04-21T23:46:27.033Z,95978.72
2023-04-21T23:48:55.282Z,95947.38
2023-04-21T23:51:23.684Z,95951.16
2023-04-21T23:53:53.400Z,95916.66
2023-04-21T23:56:22.158Z,96001.03
2023-04-21T23:58:50.356Z,95967.88
